Time;durP1;ratioP1;P1;durP2;ratioP2;P2;SDS_P1;SDS_P2;PMS_P1;PMS_P2;Temp;Humidity;BMP_temperature;BMP_pressure;BME280_temperature;BME280_humidity;BME280_pressure;Samples;Min_cycle;Max_cycle;Signal;HPM_P1;HPM_P2
2023/06/18 00:01:02;;;;;;;;;;;16.40;99.90;;;;;;5075646;28;20363;-86
2023/06/18 00:03:28;;;;;;;;;;;16.30;99.90;;;;;;5075468;28;19925;-87
2023/06/18 00:05:54;;;;;;;;;;;16.20;99.90;;;;;;5075620;28;19924;-87
2023/06/18 00:08:20;;;;;;;;;;;16.10;99.90;;;;;;5076469;28;20330;-87
2023/06/18 00:10:46;;;;;;;;;;;16.10;99.90;;;;;;5077123;28;20023;-87
2023/06/18 00:13:11;;;;;;;;;;;16.10;99.90;;;;;;5075262;28;19990;-87
2023/06/18 00:15:37;;;;;;;;;;;16.10;99.90;;;;;;5058655;28;19987;-87
2023/06/18 00:18:03;;;;;;;;;;;16.00;99.90;;;;;;5058735;28;19924;-87
2023/06/18 00:20:28;;;;;;;;;;;16.00;99.90;;;;;;5058549;28;19925;-87
2023/06/18 00:22:54;;;;;;;;;;;15.90;99.90;;;;;;5075215;28;20437;-87
2023/06/18 00:25:20;;;;;;;;;;;15.90;99.90;;;;;;5075951;28;20386;-87
2023/06/18 00:27:46;;;;;;;;;;;15.80;99.90;;;;;;5074704;28;20364;-87
2023/06/18 00:30:11;;;;;;;;;;;15.80;99.90;;;;;;5076011;28;20019;-87
2023/06/18 00:32:37;;;;;;;;;;;15.80;99.90;;;;;;5075722;28;19951;-87
2023/06/18 00:35:04;;;;;;;;;;;15.70;99.90;;;;;;5058219;28;20352;-88
2023/06/18 00:37:30;;;;;;;;;;;15.70;99.90;;;;;;5078046;28;19925;-87
2023/06/18 00:39:55;;;;;;;;;;;15.60;99.90;;;;;;5077506;28;20265;-87
2023/06/18 00:42:21;;;;;;;;;;;15.60;99.90;;;;;;5076506;28;19931;-87
2023/06/18 00:44:47;;;;;;;;;;;15.60;99.90;;;;;;5059177;28;19951;-87
2023/06/18 00:47:12;;;;;;;;;;;15.50;99.90;;;;;;5075013;28;20023;-87
2023/06/18 00:49:40;;;;;;;;;;;15.50;99.90;;;;;;5074693;28;19932;-87
2023/06/18 00:52:08;;;;;;;;;;;15.50;99.90;;;;;;5074957;28;19925;-88
2023/06/18 00:54:34;;;;;;;;;;;15.50;99.90;;;;;;5075320;28;19932;-86
2023/06/18 00:57:00;;;;;;;;;;;15.50;99.90;;;;;;5074460;28;19924;-87
2023/06/18 00:59:27;;;;;;;;;;;15.40;99.90;;;;;;5075297;28;19969;-87
2023/06/18 01:01:53;;;;;;;;;;;15.40;99.90;;;;;;5074333;28;19947;-87
2023/06/18 01:04:32;;;;;;;;;;;15.30;99.90;;;;;;5075192;28;19931;-87
2023/06/18 01:06:58;;;;;;;;;;;15.30;99.90;;;;;;5074197;28;20363;-87
2023/06/18 01:09:25;;;;;;;;;;;15.30;99.90;;;;;;5075160;28;19924;-86
2023/06/18 01:11:51;;;;;;;;;;;15.30;99.90;;;;;;5074987;28;19924;-87
2023/06/18 01:14:21;;;;;;;;;;;15.30;99.90;;;;;;5074075;28;19978;-87
2023/06/18 01:16:49;;;;;;;;;;;15.30;99.90;;;;;;5074239;28;19928;-87
2023/06/18 01:19:21;;;;;;;;;;;15.20;99.90;;;;;;5073926;28;19928;-87
2023/06/18 01:21:53;;;;;;;;;;;15.20;99.90;;;;;;5073926;28;19928;-87
2023/06/18 01:24:23;;;;;;;;;;;15.20;99.90;;;;;;5074710;28;19932;-87
2023/06/18 01:26:54;;;;;;;;;;;15.20;99.90;;;;;;5074585;28;19968;-87
2023/06/18 01:29:20;;;;;;;;;;;15.20;99.90;;;;;;5074039;28;19925;-87
2023/06/18 01:31:46;;;;;;;;;;;15.20;99.90;;;;;;5057064;28;20283;-86
2023/06/18 01:34:12;;;;;;;;;;;15.20;99.90;;;;;;5073775;28;19931;-86
2023/06/18 01:36:40;;;;;;;;;;;15.10;99.90;;;;;;5057478;28;20015;-87
2023/06/18 01:39:14;;;;;;;;;;;15.10;99.90;;;;;;5073793;28;19977;-87
2023/06/18 01:41:41;;;;;;;;;;;15.10;99.90;;;;;;5056713;28;19924;-87
2023/06/18 01:44:12;;;;;;;;;;;15.10;99.90;;;;;;5074523;28;19928;-87
2023/06/18 01:46:39;;;;;;;;;;;15.10;99.90;;;;;;5074327;28;19928;-87
2023/06/18 01:49:06;;;;;;;;;;;15.00;99.90;;;;;;5073609;28;20015;-87
2023/06/18 01:51:32;;;;;;;;;;;15.00;99.90;;;;;;5056489;28;20015;-87
2023/06/18 01:54:00;;;;;;;;;;;15.00;99.90;;;;;;5073665;28;20327;-87
2023/06/18 01:56:28;;;;;;;;;;;14.90;99.90;;;;;;5074588;28;19947;-87
2023/06/18 01:58:55;;;;;;;;;;;14.90;99.90;;;;;;5056486;28;19925;-87
2023/06/18 02:01:21;;;;;;;;;;;14.90;99.90;;;;;;5073137;28;19982;-87
2023/06/18 02:03:47;;;;;;;;;;;14.80;99.90;;;;;;5073128;28;20389;-87
2023/06/18 02:06:12;;;;;;;;;;;14.80;99.90;;;;;;5073788;28;19978;-88
2023/06/18 02:08:38;;;;;;;;;;;14.80;99.90;;;;;;5074619;28;19924;-87
2023/06/18 02:11:04;;;;;;;;;;;14.80;99.90;;;;;;5073055;28;20385;-87
2023/06/18 02:13:29;;;;;;;;;;;14.80;99.90;;;;;;5073084;28;19948;-87
2023/06/18 02:15:55;;;;;;;;;;;14.80;99.90;;;;;;5073901;28;19970;-87
2023/06/18 02:18:20;;;;;;;;;;;14.80;99.90;;;;;;5073595;28;20367;-87
2023/06/18 02:20:46;;;;;;;;;;;14.70;99.90;;;;;;5072387;28;19931;-87
2023/06/18 02:23:12;;;;;;;;;;;14.70;99.90;;;;;;5073755;28;19932;-88
2023/06/18 02:25:37;;;;;;;;;;;14.70;99.90;;;;;;5072712;28;19928;-86
2023/06/18 02:28:03;;;;;;;;;;;14.70;99.90;;;;;;5072941;28;20379;-87
2023/06/18 02:30:29;;;;;;;;;;;14.70;99.90;;;;;;5073197;28;20028;-87
2023/06/18 02:32:55;;;;;;;;;;;14.70;99.90;;;;;;5072721;28;19928;-87
2023/06/18 02:35:21;;;;;;;;;;;14.70;99.90;;;;;;5073566;28;19925;-87
2023/06/18 02:37:47;;;;;;;;;;;14.70;99.90;;;;;;5072958;28;20060;-87
2023/06/18 02:40:15;;;;;;;;;;;14.60;99.90;;;;;;5056003;28;19967;-87
2023/06/18 02:42:47;;;;;;;;;;;14.50;99.90;;;;;;5073498;28;19929;-87
2023/06/18 02:45:14;;;;;;;;;;;14.50;99.90;;;;;;5072761;28;20378;-88
2023/06/18 02:47:40;;;;;;;;;;;14.50;99.90;;;;;;5074459;28;19924;-87
2023/06/18 02:50:06;;;;;;;;;;;14.50;99.90;;;;;;5074138;28;20019;-87
2023/06/18 02:52:31;;;;;;;;;;;14.60;99.90;;;;;;5056074;28;19932;-87
2023/06/18 02:54:57;;;;;;;;;;;14.60;99.90;;;;;;5072653;28;19928;-87
2023/06/18 02:57:22;;;;;;;;;;;14.60;99.90;;;;;;5073669;28;19928;-87
2023/06/18 02:59:48;;;;;;;;;;;14.60;99.90;;;;;;5056178;28;19933;-89
2023/06/18 03:02:15;;;;;;;;;;;14.60;99.90;;;;;;5072706;28;20340;-87
2023/06/18 03:04:40;;;;;;;;;;;14.60;99.90;;;;;;5073668;28;19932;-86
2023/06/18 03:07:06;;;;;;;;;;;14.70;99.90;;;;;;5059796;28;19924;-87
2023/06/18 03:09:31;;;;;;;;;;;14.70;99.90;;;;;;5077831;28;19928;-87
2023/06/18 03:11:57;;;;;;;;;;;14.70;99.90;;;;;;5078810;28;19929;-87
2023/06/18 03:14:24;;;;;;;;;;;14.70;99.90;;;;;;5076725;28;19929;-88
2023/06/18 03:16:50;;;;;;;;;;;14.70;99.90;;;;;;5076959;28;19925;-87
2023/06/18 03:19:15;;;;;;;;;;;14.70;99.90;;;;;;5076795;28;19932;-87
2023/06/18 03:21:41;;;;;;;;;;;14.60;99.90;;;;;;5076598;28;19947;-87
2023/06/18 03:24:06;;;;;;;;;;;14.60;99.90;;;;;;5076614;28;19928;-88
2023/06/18 03:26:36;;;;;;;;;;;14.60;99.90;;;;;;5076043;28;20011;-87
2023/06/18 03:29:04;;;;;;;;;;;14.60;99.90;;;;;;5076590;28;20355;-87
2023/06/18 03:31:32;;;;;;;;;;;14.50;99.90;;;;;;5075951;28;20406;-88
2023/06/18 03:34:01;;;;;;;;;;;14.50;99.90;;;;;;5076451;28;19935;-87
2023/06/18 03:36:30;;;;;;;;;;;14.50;99.90;;;;;;5060059;28;20426;-87
2023/06/18 03:38:56;;;;;;;;;;;14.40;99.90;;;;;;5076801;28;19931;-87
2023/06/18 03:41:21;;;;;;;;;;;14.40;99.90;;;;;;5059033;28;20291;-88
2023/06/18 03:43:47;;;;;;;;;;;14.40;99.90;;;;;;5077154;28;19928;-87
2023/06/18 03:46:13;;;;;;;;;;;14.40;99.90;;;;;;5076219;28;20369;-87
2023/06/18 03:48:39;;;;;;;;;;;14.50;99.90;;;;;;5076785;28;19987;-87
2023/06/18 03:51:05;;;;;;;;;;;14.60;99.90;;;;;;5075676;28;19990;-87
2023/06/18 03:53:31;;;;;;;;;;;14.70;99.90;;;;;;5059971;28;20351;-87
2023/06/18 03:55:56;;;;;;;;;;;14.80;99.90;;;;;;5075784;28;19924;-86
2023/06/18 03:58:22;;;;;;;;;;;14.80;99.90;;;;;;5075767;28;19924;-87
2023/06/18 04:00:47;;;;;;;;;;;14.80;99.90;;;;;;5076183;28;19973;-87
2023/06/18 04:03:13;;;;;;;;;;;14.90;99.90;;;;;;5075744;28;19924;-87
2023/06/18 04:05:39;;;;;;;;;;;14.90;99.90;;;;;;5075762;28;20023;-87
2023/06/18 04:08:04;;;;;;;;;;;15.00;99.90;;;;;;5059287;28;19925;-87
2023/06/18 04:10:30;;;;;;;;;;;15.00;99.90;;;;;;5077812;28;19956;-88
2023/06/18 04:12:55;;;;;;;;;;;15.10;99.90;;;;;;5058864;28;20307;-88
2023/06/18 04:15:21;;;;;;;;;;;15.10;99.90;;;;;;5074780;28;19925;-87
2023/06/18 04:17:47;;;;;;;;;;;15.20;99.90;;;;;;5076397;28;20363;-87
2023/06/18 04:20:12;;;;;;;;;;;15.20;99.90;;;;;;5076008;28;20356;-88
2023/06/18 04:22:38;;;;;;;;;;;15.30;99.90;;;;;;5075264;28;19932;-87
2023/06/18 04:25:04;;;;;;;;;;;15.30;99.90;;;;;;5075155;28;19931;-87
2023/06/18 04:27:29;;;;;;;;;;;15.30;99.90;;;;;;5075889;28;19928;-87
2023/06/18 04:29:55;;;;;;;;;;;15.40;99.90;;;;;;5074600;28;19924;-87
2023/06/18 04:32:20;;;;;;;;;;;15.50;99.90;;;;;;5075837;28;19928;-87
2023/06/18 04:34:46;;;;;;;;;;;15.60;99.90;;;;;;5074973;28;20275;-87
2023/06/18 04:37:11;;;;;;;;;;;15.60;99.90;;;;;;5074709;28;19978;-87
2023/06/18 04:39:37;;;;;;;;;;;15.70;99.90;;;;;;5074848;28;19937;-87
2023/06/18 04:42:03;;;;;;;;;;;15.70;99.90;;;;;;5074530;28;19936;-87
2023/06/18 04:44:29;;;;;;;;;;;15.70;99.90;;;;;;5058223;28;19996;-87
2023/06/18 04:46:54;;;;;;;;;;;15.80;99.90;;;;;;5057772;28;19974;-87
2023/06/18 04:49:20;;;;;;;;;;;15.90;99.90;;;;;;5074535;28;19925;-87
2023/06/18 04:51:45;;;;;;;;;;;15.90;99.90;;;;;;5075542;28;20272;-87
2023/06/18 04:54:11;;;;;;;;;;;16.00;99.90;;;;;;5075823;28;19925;-86
2023/06/18 04:56:37;;;;;;;;;;;16.10;99.90;;;;;;5075513;28;20482;-88
2023/06/18 04:59:02;;;;;;;;;;;16.20;99.90;;;;;;5074342;28;19970;-87
2023/06/18 05:01:28;;;;;;;;;;;16.20;99.90;;;;;;5074354;28;20359;-89
2023/06/18 05:03:54;;;;;;;;;;;16.30;99.90;;;;;;5075897;28;20371;-87
2023/06/18 05:06:19;;;;;;;;;;;16.40;99.90;;;;;;5075104;28;20036;-87
2023/06/18 05:08:46;;;;;;;;;;;16.60;99.90;;;;;;5074402;28;19924;-87
2023/06/18 05:11:12;;;;;;;;;;;16.70;99.90;;;;;;5074827;28;19993;-88
2023/06/18 05:13:38;;;;;;;;;;;16.90;99.90;;;;;;5074189;28;20379;-86
2023/06/18 05:16:03;;;;;;;;;;;17.10;99.90;;;;;;5074330;28;20029;-87
2023/06/18 05:18:30;;;;;;;;;;;17.40;99.90;;;;;;5074522;28;19959;-88
2023/06/18 05:20:55;;;;;;;;;;;17.80;99.90;;;;;;5074488;28;19994;-88
2023/06/18 05:23:21;;;;;;;;;;;18.20;99.90;;;;;;5075766;28;19924;-88
2023/06/18 05:25:47;;;;;;;;;;;18.50;99.90;;;;;;5058600;28;19936;-87
2023/06/18 05:28:12;;;;;;;;;;;18.80;99.90;;;;;;5073195;28;19947;-87
2023/06/18 05:30:38;;;;;;;;;;;19.20;99.90;;;;;;5074859;28;19925;-88
2023/06/18 05:33:03;;;;;;;;;;;19.60;99.90;;;;;;5073839;28;20015;-87
2023/06/18 05:35:29;;;;;;;;;;;19.80;99.90;;;;;;5073887;28;20317;-87
2023/06/18 05:37:55;;;;;;;;;;;20.10;99.90;;;;;;5074780;28;20087;-87
2023/06/18 05:40:20;;;;;;;;;;;20.30;99.90;;;;;;5073984;28;19924;-90
2023/06/18 05:42:46;;;;;;;;;;;20.20;99.90;;;;;;5076358;28;19925;-87
2023/06/18 05:45:12;;;;;;;;;;;20.10;99.90;;;;;;5076237;28;19931;-88
2023/06/18 05:47:37;;;;;;;;;;;19.80;99.90;;;;;;5073807;28;20007;-88
2023/06/18 05:50:03;;;;;;;;;;;19.50;99.90;;;;;;5073610;28;19973;-87
2023/06/18 05:52:29;;;;;;;;;;;19.30;99.90;;;;;;5073347;28;19967;-87
2023/06/18 05:54:55;;;;;;;;;;;19.10;99.90;;;;;;5074363;28;19947;-87
2023/06/18 05:57:20;;;;;;;;;;;18.90;99.90;;;;;;5074315;28;20019;-87
2023/06/18 05:59:48;;;;;;;;;;;18.90;99.90;;;;;;5073142;28;19931;-87
2023/06/18 06:02:13;;;;;;;;;;;18.80;99.90;;;;;;5074218;28;19925;-88
2023/06/18 06:04:39;;;;;;;;;;;18.80;99.90;;;;;;5075005;28;19932;-87
2023/06/18 06:07:04;;;;;;;;;;;18.80;99.90;;;;;;5075043;28;20031;-87
2023/06/18 06:09:30;;;;;;;;;;;18.80;99.90;;;;;;5073673;28;19925;-87
2023/06/18 06:11:56;;;;;;;;;;;18.80;99.90;;;;;;5075128;28;20013;-87
2023/06/18 06:14:22;;;;;;;;;;;18.80;99.90;;;;;;5057477;28;19924;-88
2023/06/18 06:16:48;;;;;;;;;;;18.80;99.90;;;;;;5073398;28;20451;-88
2023/06/18 06:19:14;;;;;;;;;;;18.90;99.90;;;;;;5074634;28;19924;-89
2023/06/18 06:21:39;;;;;;;;;;;19.00;99.90;;;;;;5073743;28;19932;-88
2023/06/18 06:24:06;;;;;;;;;;;19.20;99.90;;;;;;5073060;28;20015;-88
2023/06/18 06:26:31;;;;;;;;;;;19.40;99.90;;;;;;5079082;28;20370;-89
2023/06/18 06:28:57;;;;;;;;;;;19.70;99.90;;;;;;5077905;28;19932;-88
2023/06/18 06:31:22;;;;;;;;;;;19.90;99.90;;;;;;5073851;28;19937;-89
2023/06/18 06:33:48;;;;;;;;;;;20.10;99.90;;;;;;5056065;28;20003;-88
2023/06/18 06:36:14;;;;;;;;;;;20.40;99.90;;;;;;5073938;28;19925;-88
2023/06/18 06:38:43;;;;;;;;;;;20.60;99.90;;;;;;5056280;28;19931;-88
2023/06/18 06:41:08;;;;;;;;;;;20.80;99.90;;;;;;5073712;28;19964;-90
2023/06/18 06:43:34;;;;;;;;;;;21.00;99.90;;;;;;5059746;28;19925;-88
2023/06/18 06:46:00;;;;;;;;;;;21.40;99.90;;;;;;5074094;28;19924;-86
2023/06/18 06:48:25;;;;;;;;;;;21.80;99.90;;;;;;5072606;28;19931;-87
2023/06/18 06:50:52;;;;;;;;;;;22.40;99.90;;;;;;5072023;28;19931;-87
2023/06/18 06:53:17;;;;;;;;;;;23.10;99.90;;;;;;5073282;28;19935;-87
2023/06/18 06:55:43;;;;;;;;;;;23.90;99.90;;;;;;5073338;28;19925;-87
2023/06/18 06:58:08;;;;;;;;;;;24.50;99.90;;;;;;5072663;28;19924;-86
2023/06/18 07:00:34;;;;;;;;;;;24.80;99.90;;;;;;5072218;28;20461;-86
2023/06/18 07:02:59;;;;;;;;;;;25.00;99.90;;;;;;5074043;28;19985;-86
2023/06/18 07:05:25;;;;;;;;;;;25.00;99.90;;;;;;5073485;28;20300;-87
2023/06/18 07:07:51;;;;;;;;;;;24.70;99.90;;;;;;5073868;28;20362;-85
2023/06/18 07:10:16;;;;;;;;;;;24.50;99.90;;;;;;5072444;28;19990;-86
2023/06/18 07:12:42;;;;;;;;;;;24.20;99.90;;;;;;5073311;28;19936;-86
2023/06/18 07:15:08;;;;;;;;;;;24.10;99.90;;;;;;5073616;28;19928;-86
2023/06/18 07:17:33;;;;;;;;;;;24.30;99.90;;;;;;5055145;28;19928;-86
2023/06/18 07:20:01;;;;;;;;;;;24.70;99.90;;;;;;5073177;28;19987;-92
2023/06/18 07:22:27;;;;;;;;;;;25.30;99.90;;;;;;5054999;28;19974;-88
2023/06/18 07:24:56;;;;;;;;;;;25.80;99.90;;;;;;5073743;28;19924;-85
2023/06/18 07:27:22;;;;;;;;;;;26.30;99.90;;;;;;5074158;28;19931;-83
2023/06/18 07:29:47;;;;;;;;;;;26.60;99.90;;;;;;5073389;28;20011;-84
2023/06/18 07:32:13;;;;;;;;;;;27.00;99.90;;;;;;5073265;28;19986;-84
2023/06/18 07:34:39;;;;;;;;;;;27.30;99.90;;;;;;5073276;28;19925;-84
2023/06/18 07:37:04;;;;;;;;;;;27.60;99.90;;;;;;5073258;28;19982;-83
2023/06/18 07:39:30;;;;;;;;;;;27.90;99.90;;;;;;5071783;28;19924;-84
2023/06/18 07:41:56;;;;;;;;;;;28.00;99.90;;;;;;5072894;28;19925;-86
2023/06/18 07:44:21;;;;;;;;;;;28.30;99.90;;;;;;5071893;28;19931;-84
2023/06/18 07:46:47;;;;;;;;;;;28.40;99.40;;;;;;5072922;28;20328;-85
2023/06/18 07:49:13;;;;;;;;;;;28.50;99.70;;;;;;5073351;28;20011;-85
2023/06/18 07:51:39;;;;;;;;;;;28.70;97.50;;;;;;5075361;28;20046;-87
2023/06/18 07:54:04;;;;;;;;;;;28.90;97.90;;;;;;5076664;28;19977;-80
2023/06/18 07:56:30;;;;;;;;;;;28.90;94.90;;;;;;5076612;28;19931;-81
2023/06/18 07:58:55;;;;;;;;;;;28.80;96.40;;;;;;5059016;28;20045;-81
2023/06/18 08:01:21;;;;;;;;;;;28.80;96.10;;;;;;5076581;28;19924;-81
2023/06/18 08:03:46;;;;;;;;;;;28.90;95.50;;;;;;5077016;28;19925;-82
2023/06/18 08:06:12;;;;;;;;;;;29.00;94.80;;;;;;5076439;28;20355;-82
2023/06/18 08:08:37;;;;;;;;;;;29.10;92.70;;;;;;5076654;28;19928;-81
2023/06/18 08:11:03;;;;;;;;;;;29.30;94.80;;;;;;5076863;28;19951;-80
2023/06/18 08:13:29;;;;;;;;;;;29.40;94.80;;;;;;5076379;28;19925;-81
2023/06/18 08:15:55;;;;;;;;;;;29.40;92.70;;;;;;5076331;28;19994;-81
2023/06/18 08:18:20;;;;;;;;;;;29.40;95.00;;;;;;5076158;28;20364;-81
2023/06/18 08:20:46;;;;;;;;;;;29.50;94.30;;;;;;5075270;28;19925;-81
2023/06/18 08:23:11;;;;;;;;;;;29.70;92.10;;;;;;5075887;28;19924;-81
2023/06/18 08:25:37;;;;;;;;;;;29.70;91.20;;;;;;5076865;28;20019;-81
2023/06/18 08:28:03;;;;;;;;;;;29.60;92.80;;;;;;5075533;28;20374;-81
2023/06/18 08:30:28;;;;;;;;;;;29.30;90.60;;;;;;5074794;28;19925;-81
2023/06/18 08:32:57;;;;;;;;;;;29.10;92.20;;;;;;5075950;28;19929;-83
2023/06/18 08:35:22;;;;;;;;;;;29.00;91.30;;;;;;5075979;28;19924;-82
2023/06/18 08:37:48;;;;;;;;;;;28.90;92.80;;;;;;5075047;28;19925;-82
2023/06/18 08:40:14;;;;;;;;;;;28.80;91.50;;;;;;5075706;28;19928;-80
2023/06/18 08:42:40;;;;;;;;;;;28.90;88.90;;;;;;5075679;28;19924;-81
2023/06/18 08:45:08;;;;;;;;;;;29.00;90.30;;;;;;5075533;28;20015;-81
2023/06/18 08:47:34;;;;;;;;;;;29.00;90.10;;;;;;5075629;28;20023;-81
2023/06/18 08:49:59;;;;;;;;;;;29.20;88.10;;;;;;5074827;28;20359;-81
2023/06/18 08:52:27;;;;;;;;;;;29.40;85.70;;;;;;5075069;28;19978;-81
2023/06/18 08:54:56;;;;;;;;;;;29.50;84.00;;;;;;5075912;28;19925;-81
2023/06/18 08:57:32;;;;;;;;;;;29.50;84.80;;;;;;5075311;28;20371;-84
2023/06/18 08:59:59;;;;;;;;;;;29.60;87.10;;;;;;5075173;28;19928;-82
2023/06/18 09:02:25;;;;;;;;;;;29.70;83.90;;;;;;5075170;28;19928;-81
2023/06/18 09:04:51;;;;;;;;;;;29.90;88.80;;;;;;5075220;28;19924;-82
2023/06/18 09:07:17;;;;;;;;;;;30.00;84.20;;;;;;5075340;28;19925;-82
2023/06/18 09:09:43;;;;;;;;;;;30.10;79.10;;;;;;5075253;28;19925;-82
2023/06/18 09:12:08;;;;;;;;;;;30.30;85.90;;;;;;5074965;28;19925;-82
2023/06/18 09:14:34;;;;;;;;;;;30.40;79.60;;;;;;5075456;28;19931;-83
2023/06/18 09:16:59;;;;;;;;;;;30.50;80.90;;;;;;5074940;28;19924;-82
2023/06/18 09:19:25;;;;;;;;;;;30.60;78.30;;;;;;5074751;28;19924;-81
2023/06/18 09:21:51;;;;;;;;;;;30.70;75.30;;;;;;5075220;28;20023;-82
2023/06/18 09:24:23;;;;;;;;;;;30.80;76.10;;;;;;5074829;28;19986;-82
2023/06/18 09:26:59;;;;;;;;;;;30.90;77.80;;;;;;5074625;28;19925;-83
2023/06/18 09:29:27;;;;;;;;;;;31.10;75.00;;;;;;5075245;28;19924;-84
2023/06/18 09:31:52;;;;;;;;;;;31.30;76.30;;;;;;5074391;28;19978;-82
2023/06/18 09:34:18;;;;;;;;;;;31.40;70.50;;;;;;5074915;28;19928;-81
2023/06/18 09:36:45;;;;;;;;;;;31.40;74.10;;;;;;5074712;28;19980;-82
2023/06/18 09:39:18;;;;;;;;;;;31.30;69.00;;;;;;5074694;28;19931;-84
2023/06/18 09:41:45;;;;;;;;;;;31.20;70.20;;;;;;5074499;28;20239;-84
2023/06/18 09:44:12;;;;;;;;;;;31.10;69.70;;;;;;5074499;28;19924;-82
2023/06/18 09:46:37;;;;;;;;;;;30.90;65.80;;;;;;5074506;28;20070;-82
2023/06/18 09:49:03;;;;;;;;;;;30.60;66.20;;;;;;5074473;28;19979;-82
2023/06/18 09:51:29;;;;;;;;;;;30.40;68.20;;;;;;5074301;28;20032;-81
2023/06/18 09:53:55;;;;;;;;;;;30.10;68.50;;;;;;5074257;28;19924;-82
2023/06/18 09:56:21;;;;;;;;;;;29.90;69.40;;;;;;5072658;28;20287;-81
2023/06/18 09:58:47;;;;;;;;;;;29.90;70.20;;;;;;5074411;28;19925;-83
2023/06/18 10:01:14;;;;;;;;;;;29.90;70.10;;;;;;5073817;28;19978;-83
2023/06/18 10:03:40;;;;;;;;;;;29.90;71.80;;;;;;5074460;28;20314;-82
2023/06/18 10:06:08;;;;;;;;;;;30.00;69.80;;;;;;5073732;28;19930;-81
2023/06/18 10:08:37;;;;;;;;;;;30.00;69.70;;;;;;5073656;28;19925;-82
2023/06/18 10:11:03;;;;;;;;;;;30.10;69.60;;;;;;5074083;28;20310;-81
2023/06/18 10:13:29;;;;;;;;;;;30.30;69.60;;;;;;5073030;28;19924;-82
2023/06/18 10:15:55;;;;;;;;;;;30.40;71.00;;;;;;5073999;28;20271;-80
2023/06/18 10:18:23;;;;;;;;;;;30.50;66.30;;;;;;5074049;28;19924;-81
2023/06/18 10:20:52;;;;;;;;;;;30.40;69.60;;;;;;5074502;28;20017;-81
2023/06/18 10:23:19;;;;;;;;;;;30.40;67.50;;;;;;5073234;28;19928;-82
2023/06/18 10:25:45;;;;;;;;;;;30.40;66.70;;;;;;5073043;28;19932;-81
2023/06/18 10:28:11;;;;;;;;;;;30.20;68.30;;;;;;5072273;28;20445;-82
2023/06/18 10:30:36;;;;;;;;;;;30.00;71.30;;;;;;5073809;28;19979;-82
2023/06/18 10:33:02;;;;;;;;;;;29.90;66.40;;;;;;5074178;28;20011;-86
2023/06/18 10:35:28;;;;;;;;;;;29.80;70.00;;;;;;5073448;28;19935;-84
2023/06/18 10:37:54;;;;;;;;;;;29.70;68.50;;;;;;5073516;28;19931;-82
2023/06/18 10:40:20;;;;;;;;;;;29.80;71.20;;;;;;5074154;28;19928;-81
2023/06/18 10:42:49;;;;;;;;;;;29.80;68.20;;;;;;5073581;28;19924;-81
2023/06/18 10:45:15;;;;;;;;;;;29.70;70.40;;;;;;5074332;28;20333;-83
2023/06/18 10:47:42;;;;;;;;;;;29.50;69.60;;;;;;5073429;28;19924;-83
2023/06/18 10:50:07;;;;;;;;;;;29.40;67.70;;;;;;5073506;28;19932;-82
2023/06/18 10:52:34;;;;;;;;;;;29.50;68.40;;;;;;5073682;28;19949;-82
2023/06/18 10:55:26;;;;;;;;;;;29.50;67.30;;;;;;5074011;28;19931;-83
2023/06/18 10:57:59;;;;;;;;;;;29.50;65.30;;;;;;5070249;28;19924;-82
2023/06/18 11:00:29;;;;;;;;;;;29.70;66.20;;;;;;5073737;28;20030;-83
2023/06/18 11:02:58;;;;;;;;;;;29.80;64.60;;;;;;5073537;28;19977;-83
2023/06/18 11:05:33;;;;;;;;;;;30.00;62.80;;;;;;5073352;28;20310;-82
2023/06/18 11:08:09;;;;;;;;;;;30.10;66.50;;;;;;5073342;28;19924;-81
2023/06/18 11:10:39;;;;;;;;;;;30.40;65.20;;;;;;5074218;28;20019;-82
2023/06/18 11:13:06;;;;;;;;;;;30.70;64.50;;;;;;5073454;28;20021;-83
2023/06/18 11:15:32;;;;;;;;;;;31.00;64.50;;;;;;5073367;28;19925;-82
2023/06/18 11:18:01;;;;;;;;;;;31.10;62.00;;;;;;5073407;28;19928;-82
2023/06/18 11:20:29;;;;;;;;;;;31.20;63.10;;;;;;5073111;28;19928;-82
2023/06/18 11:22:55;;;;;;;;;;;31.20;61.40;;;;;;5073142;28;19950;-83
2023/06/18 11:25:21;;;;;;;;;;;31.30;60.70;;;;;;5074171;28;20011;-81
2023/06/18 11:27:48;;;;;;;;;;;31.40;60.90;;;;;;5076644;28;19924;-82
2023/06/18 11:30:14;;;;;;;;;;;31.30;56.00;;;;;;5076475;28;19925;-83
2023/06/18 11:32:40;;;;;;;;;;;31.20;58.90;;;;;;5077124;28;19924;-83
2023/06/18 11:35:07;;;;;;;;;;;31.20;55.40;;;;;;5076782;28;19925;-85
2023/06/18 11:37:33;;;;;;;;;;;31.20;57.50;;;;;;5076813;28;19924;-82
2023/06/18 11:39:58;;;;;;;;;;;31.30;58.50;;;;;;5076956;28;20023;-82
2023/06/18 11:42:26;;;;;;;;;;;31.40;56.50;;;;;;5076020;28;21516;-83
2023/06/18 11:44:53;;;;;;;;;;;31.40;54.30;;;;;;5076580;28;19946;-84
2023/06/18 11:47:19;;;;;;;;;;;31.40;53.40;;;;;;5075908;28;19932;-82
2023/06/18 11:49:46;;;;;;;;;;;31.40;56.20;;;;;;5076797;28;19925;-82
2023/06/18 11:52:22;;;;;;;;;;;31.40;56.90;;;;;;5075947;28;19924;-81
2023/06/18 11:54:50;;;;;;;;;;;31.40;56.50;;;;;;5077084;28;19982;-82
2023/06/18 11:57:17;;;;;;;;;;;31.20;56.10;;;;;;5076620;28;19924;-81
2023/06/18 11:59:44;;;;;;;;;;;31.30;55.00;;;;;;5076598;28;19924;-82
2023/06/18 12:02:10;;;;;;;;;;;31.40;58.60;;;;;;5076521;28;19929;-81
2023/06/18 12:04:36;;;;;;;;;;;31.40;58.30;;;;;;5076836;28;19931;-86
2023/06/18 12:07:01;;;;;;;;;;;31.60;56.50;;;;;;5076034;28;20015;-83
2023/06/18 12:09:30;;;;;;;;;;;31.70;55.70;;;;;;5076365;28;19977;-82
2023/06/18 12:12:07;;;;;;;;;;;31.80;58.50;;;;;;5075991;28;20456;-82
2023/06/18 12:14:51;;;;;;;;;;;31.90;53.20;;;;;;5076004;28;19977;-83
2023/06/18 12:17:22;;;;;;;;;;;32.00;54.40;;;;;;5076160;28;20340;-82
2023/06/18 12:19:52;;;;;;;;;;;32.00;53.50;;;;;;5076307;28;19928;-83
2023/06/18 12:22:18;;;;;;;;;;;31.90;52.60;;;;;;5076030;28;19928;-86
2023/06/18 12:24:43;;;;;;;;;;;31.90;52.60;;;;;;5075843;28;20440;-81
2023/06/18 12:27:09;;;;;;;;;;;31.80;56.30;;;;;;5076000;28;19976;-82
2023/06/18 12:29:35;;;;;;;;;;;31.60;53.90;;;;;;5076001;28;19925;-83
2023/06/18 12:32:01;;;;;;;;;;;31.70;55.00;;;;;;5076169;28;19931;-83
2023/06/18 12:34:27;;;;;;;;;;;31.70;57.20;;;;;;5074711;28;19971;-81
2023/06/18 12:36:56;;;;;;;;;;;31.70;53.70;;;;;;5074613;28;19975;-82
2023/06/18 12:39:21;;;;;;;;;;;31.60;53.90;;;;;;5075911;28;19924;-82
2023/06/18 12:41:47;;;;;;;;;;;31.60;54.60;;;;;;5076177;28;19930;-83
2023/06/18 12:44:12;;;;;;;;;;;31.70;53.40;;;;;;5058156;28;19924;-83
2023/06/18 12:46:38;;;;;;;;;;;31.60;54.80;;;;;;5076509;28;19928;-84
2023/06/18 12:49:07;;;;;;;;;;;31.60;55.10;;;;;;5076262;28;19924;-82
2023/06/18 12:51:40;;;;;;;;;;;31.50;54.40;;;;;;5075526;28;20367;-82
2023/06/18 12:54:12;;;;;;;;;;;31.40;54.30;;;;;;5075610;28;19925;-82
2023/06/18 12:56:44;;;;;;;;;;;31.40;57.10;;;;;;5075994;28;20027;-81
2023/06/18 12:59:16;;;;;;;;;;;31.30;55.00;;;;;;5076409;28;19925;-82
2023/06/18 13:01:43;;;;;;;;;;;31.30;54.50;;;;;;5075293;28;19924;-84
2023/06/18 13:04:09;;;;;;;;;;;31.30;55.10;;;;;;5075460;28;19924;-84
2023/06/18 13:06:35;;;;;;;;;;;31.20;56.40;;;;;;5074298;28;19924;-83
2023/06/18 13:09:02;;;;;;;;;;;31.10;55.70;;;;;;5073997;28;19931;-84
2023/06/18 13:11:27;;;;;;;;;;;31.00;56.30;;;;;;5075671;28;19936;-83
2023/06/18 13:13:53;;;;;;;;;;;31.00;54.00;;;;;;5075362;28;19924;-84
2023/06/18 13:16:19;;;;;;;;;;;30.90;56.70;;;;;;5075117;28;19928;-83
2023/06/18 13:18:45;;;;;;;;;;;30.90;54.50;;;;;;5074794;28;19925;-84
2023/06/18 13:21:10;;;;;;;;;;;30.80;55.00;;;;;;5074855;28;19963;-83
2023/06/18 13:23:36;;;;;;;;;;;30.90;57.20;;;;;;5075123;28;20268;-83
2023/06/18 13:26:01;;;;;;;;;;;30.80;56.50;;;;;;5074773;28;20318;-84
2023/06/18 13:28:27;;;;;;;;;;;30.80;57.10;;;;;;5074776;28;19924;-84
2023/06/18 13:30:53;;;;;;;;;;;30.80;55.00;;;;;;5073673;28;19977;-88
2023/06/18 13:33:19;;;;;;;;;;;30.80;56.10;;;;;;5075108;28;20394;-87
2023/06/18 13:35:45;;;;;;;;;;;30.70;55.40;;;;;;5074842;28;19976;-88
2023/06/18 13:38:11;;;;;;;;;;;30.70;55.90;;;;;;5073743;28;19931;-87
2023/06/18 13:40:36;;;;;;;;;;;30.70;53.80;;;;;;5074763;28;19932;-87
2023/06/18 13:43:02;;;;;;;;;;;30.50;54.50;;;;;;5074641;28;19924;-87
2023/06/18 13:45:28;;;;;;;;;;;30.50;55.30;;;;;;5074691;28;20036;-87
2023/06/18 13:47:53;;;;;;;;;;;30.40;55.10;;;;;;5056503;28;20022;-87
2023/06/18 13:50:19;;;;;;;;;;;30.40;56.20;;;;;;5074560;28;19932;-88
2023/06/18 13:52:45;;;;;;;;;;;30.30;55.20;;;;;;5073521;28;20423;-87
2023/06/18 13:55:10;;;;;;;;;;;30.30;55.70;;;;;;5074416;28;19925;-86
2023/06/18 13:57:36;;;;;;;;;;;30.20;54.30;;;;;;5073714;28;19924;-87
2023/06/18 14:00:02;;;;;;;;;;;30.10;52.10;;;;;;5073397;28;19946;-86
2023/06/18 14:02:28;;;;;;;;;;;30.00;51.60;;;;;;5075231;28;20368;-87
2023/06/18 14:04:54;;;;;;;;;;;29.90;53.80;;;;;;5075294;28;20020;-87
2023/06/18 14:07:20;;;;;;;;;;;29.90;55.80;;;;;;5074359;28;19939;-87
2023/06/18 14:09:46;;;;;;;;;;;29.80;55.80;;;;;;5073161;28;19928;-87
2023/06/18 14:12:12;;;;;;;;;;;29.80;55.80;;;;;;5074857;28;19947;-87